sensor_id;sensor_type;location;lat;lon;timestamp;P1;durP1;ratioP1;P2;durP2;ratioP2
60233;SDS011;49514;43.538;-5.708;2024-03-02T08:12:51;6.90;;;1.10;;
60233;SDS011;49514;43.538;-5.708;2024-03-02T08:15:17;6.95;;;1.08;;
60233;SDS011;49514;43.538;-5.708;2024-03-02T08:17:44;6.18;;;1.20;;
60233;SDS011;49514;43.538;-5.708;2024-03-02T08:20:14;6.43;;;1.50;;
60233;SDS011;49514;43.538;-5.708;2024-03-02T08:22:41;4.00;;;0.73;;
60233;SDS011;49514;43.538;-5.708;2024-03-02T08:25:08;5.75;;;0.90;;
60233;SDS011;49514;43.538;-5.708;2024-03-02T08:27:35;10.13;;;1.60;;
60233;SDS011;49514;43.538;-5.708;2024-03-02T08:30:02;16.02;;;1.83;;
60233;SDS011;49514;43.538;-5.708;2024-03-02T08:32:32;12.57;;;1.63;;
60233;SDS011;49514;43.538;-5.708;2024-03-02T08:34:58;47.25;;;16.90;;
60233;SDS011;49514;43.538;-5.708;2024-03-02T08:37:25;31.30;;;6.60;;
60233;SDS011;49514;43.538;-5.708;2024-03-02T08:39:52;30.27;;;8.88;;
60233;SDS011;49514;43.538;-5.708;2024-03-02T08:42:19;33.78;;;8.40;;
60233;SDS011;49514;43.538;-5.708;2024-03-02T08:44:46;39.15;;;7.63;;
60233;SDS011;49514;43.538;-5.708;2024-03-02T08:47:12;32.15;;;9.30;;
60233;SDS011;49514;43.538;-5.708;2024-03-02T08:49:39;19.30;;;4.82;;
60233;SDS011;49514;43.538;-5.708;2024-03-02T08:52:06;20.10;;;4.65;;
60233;SDS011;49514;43.538;-5.708;2024-03-02T08:54:32;31.13;;;5.63;;
60233;SDS011;49514;43.538;-5.708;2024-03-02T08:56:59;23.98;;;5.40;;
60233;SDS011;49514;43.538;-5.708;2024-03-02T08:59:26;24.85;;;7.85;;
60233;SDS011;49514;43.538;-5.708;2024-03-02T09:01:53;27.42;;;7.07;;
60233;SDS011;49514;43.538;-5.708;2024-03-02T09:04:20;18.10;;;6.38;;
60233;SDS011;49514;43.538;-5.708;2024-03-02T09:06:47;30.63;;;10.85;;
60233;SDS011;49514;43.538;-5.708;2024-03-02T09:09:14;40.40;;;16.00;;
60233;SDS011;49514;43.538;-5.708;2024-03-02T09:11:40;28.50;;;8.27;;
60233;SDS011;49514;43.538;-5.708;2024-03-02T09:14:07;21.63;;;7.03;;
60233;SDS011;49514;43.538;-5.708;2024-03-02T09:16:34;27.67;;;3.83;;
60233;SDS011;49514;43.538;-5.708;2024-03-02T09:19:00;26.63;;;11.07;;
60233;SDS011;49514;43.538;-5.708;2024-03-02T09:21:27;33.10;;;10.57;;
60233;SDS011;49514;43.538;-5.708;2024-03-02T09:23:55;31.33;;;7.03;;
60233;SDS011;49514;43.538;-5.708;2024-03-02T09:26:22;30.85;;;9.82;;
60233;SDS011;49514;43.538;-5.708;2024-03-02T09:28:50;36.20;;;11.52;;
60233;SDS011;49514;43.538;-5.708;2024-03-02T09:31:17;24.63;;;9.70;;
60233;SDS011;49514;43.538;-5.708;2024-03-02T09:33:43;19.10;;;7.82;;
60233;SDS011;49514;43.538;-5.708;2024-03-02T09:36:16;24.60;;;6.60;;
60233;SDS011;49514;43.538;-5.708;2024-03-02T09:38:46;21.30;;;8.23;;
60233;SDS011;49514;43.538;-5.708;2024-03-02T09:41:14;11.27;;;2.47;;
60233;SDS011;49514;43.538;-5.708;2024-03-02T09:43:41;14.35;;;5.18;;
60233;SDS011;49514;43.538;-5.708;2024-03-02T09:46:10;15.98;;;4.72;;
60233;SDS011;49514;43.538;-5.708;2024-03-02T09:48:37;28.90;;;11.07;;
60233;SDS011;49514;43.538;-5.708;2024-03-02T09:51:04;14.18;;;4.75;;
60233;SDS011;49514;43.538;-5.708;2024-03-02T09:53:32;13.68;;;3.65;;
60233;SDS011;49514;43.538;-5.708;2024-03-02T09:56:00;12.30;;;2.42;;
60233;SDS011;49514;43.538;-5.708;2024-03-02T09:58:27;2.38;;;0.68;;
60233;SDS011;49514;43.538;-5.708;2024-03-02T10:00:54;4.82;;;0.77;;
60233;SDS011;49514;43.538;-5.708;2024-03-02T10:03:22;2.33;;;0.60;;
60233;SDS011;49514;43.538;-5.708;2024-03-02T10:05:53;3.40;;;0.90;;
60233;SDS011;49514;43.538;-5.708;2024-03-02T10:08:20;2.20;;;0.70;;
60233;SDS011;49514;43.538;-5.708;2024-03-02T10:10:48;2.90;;;0.82;;
60233;SDS011;49514;43.538;-5.708;2024-03-02T10:13:14;6.32;;;1.30;;
60233;SDS011;49514;43.538;-5.708;2024-03-02T10:15:42;18.60;;;5.88;;
60233;SDS011;49514;43.538;-5.708;2024-03-02T10:18:09;17.10;;;7.35;;
60233;SDS011;49514;43.538;-5.708;2024-03-02T10:20:42;5.60;;;2.22;;
60233;SDS011;49514;43.538;-5.708;2024-03-02T10:23:12;2.92;;;1.13;;
60233;SDS011;49514;43.538;-5.708;2024-03-02T10:25:40;3.53;;;1.02;;
60233;SDS011;49514;43.538;-5.708;2024-03-02T10:28:08;1.92;;;0.80;;
60233;SDS011;49514;43.538;-5.708;2024-03-02T10:30:35;4.65;;;1.15;;
60233;SDS011;49514;43.538;-5.708;2024-03-02T10:33:02;4.97;;;1.20;;
60233;SDS011;49514;43.538;-5.708;2024-03-02T10:35:31;3.70;;;0.90;;
60233;SDS011;49514;43.538;-5.708;2024-03-02T10:38:03;3.13;;;0.80;;
60233;SDS011;49514;43.538;-5.708;2024-03-02T10:40:31;1.35;;;0.80;;
60233;SDS011;49514;43.538;-5.708;2024-03-02T10:42:58;0.90;;;0.60;;
60233;SDS011;49514;43.538;-5.708;2024-03-02T10:45:27;1.95;;;0.98;;
60233;SDS011;49514;43.538;-5.708;2024-03-02T10:47:55;8.02;;;3.40;;
60233;SDS011;49514;43.538;-5.708;2024-03-02T10:50:27;8.63;;;3.50;;
60233;SDS011;49514;43.538;-5.708;2024-03-02T10:52:54;6.32;;;3.17;;
60233;SDS011;49514;43.538;-5.708;2024-03-02T10:55:21;3.73;;;1.70;;
60233;SDS011;49514;43.538;-5.708;2024-03-02T10:57:52;8.52;;;2.58;;
60233;SDS011;49514;43.538;-5.708;2024-03-02T11:00:20;13.00;;;3.50;;
60233;SDS011;49514;43.538;-5.708;2024-03-02T11:02:56;19.25;;;5.53;;
60233;SDS011;49514;43.538;-5.708;2024-03-02T11:05:26;16.40;;;4.50;;
60233;SDS011;49514;43.538;-5.708;2024-03-02T11:07:57;14.43;;;4.47;;
60233;SDS011;49514;43.538;-5.708;2024-03-02T11:10:37;9.18;;;2.65;;
60233;SDS011;49514;43.538;-5.708;2024-03-02T11:13:13;12.77;;;3.50;;
60233;SDS011;49514;43.538;-5.708;2024-03-02T11:15:41;12.35;;;3.67;;
60233;SDS011;49514;43.538;-5.708;2024-03-02T11:18:10;27.88;;;10.45;;
60233;SDS011;49514;43.538;-5.708;2024-03-02T11:20:38;22.05;;;8.77;;
60233;SDS011;49514;43.538;-5.708;2024-03-02T11:23:08;13.05;;;4.57;;
60233;SDS011;49514;43.538;-5.708;2024-03-02T11:25:35;9.68;;;3.00;;
60233;SDS011;49514;43.538;-5.708;2024-03-02T11:28:04;3.72;;;1.25;;
60233;SDS011;49514;43.538;-5.708;2024-03-02T11:33:05;1.92;;;0.80;;
60233;SDS011;49514;43.538;-5.708;2024-03-02T11:35:33;1.52;;;0.60;;
60233;SDS011;49514;43.538;-5.708;2024-03-02T11:38:01;0.98;;;0.63;;
60233;SDS011;49514;43.538;-5.708;2024-03-02T11:40:29;0.70;;;0.50;;
60233;SDS011;49514;43.538;-5.708;2024-03-02T11:42:57;4.10;;;1.30;;
60233;SDS011;49514;43.538;-5.708;2024-03-02T11:45:26;3.47;;;0.85;;
60233;SDS011;49514;43.538;-5.708;2024-03-02T11:47:53;2.00;;;0.93;;
60233;SDS011;49514;43.538;-5.708;2024-03-02T11:50:30;1.30;;;0.75;;
60233;SDS011;49514;43.538;-5.708;2024-03-02T11:53:07;3.83;;;1.20;;
60233;SDS011;49514;43.538;-5.708;2024-03-02T11:55:35;2.20;;;0.80;;
60233;SDS011;49514;43.538;-5.708;2024-03-02T11:58:03;1.30;;;0.50;;
60233;SDS011;49514;43.538;-5.708;2024-03-02T12:00:30;1.87;;;0.70;;
60233;SDS011;49514;43.538;-5.708;2024-03-02T12:03:01;6.63;;;2.05;;
60233;SDS011;49514;43.538;-5.708;2024-03-02T12:05:32;7.75;;;2.60;;
60233;SDS011;49514;43.538;-5.708;2024-03-02T12:08:04;6.38;;;2.17;;
60233;SDS011;49514;43.538;-5.708;2024-03-02T12:10:36;16.13;;;5.93;;
60233;SDS011;49514;43.538;-5.708;2024-03-02T12:13:04;18.85;;;4.82;;
60233;SDS011;49514;43.538;-5.708;2024-03-02T12:15:33;25.67;;;4.87;;
60233;SDS011;49514;43.538;-5.708;2024-03-02T12:18:04;18.63;;;3.80;;
60233;SDS011;49514;43.538;-5.708;2024-03-02T12:20:32;5.10;;;1.02;;
60233;SDS011;49514;43.538;-5.708;2024-03-02T12:23:01;7.20;;;1.27;;
60233;SDS011;49514;43.538;-5.708;2024-03-02T12:25:30;13.85;;;1.77;;
60233;SDS011;49514;43.538;-5.708;2024-03-02T12:27:59;21.40;;;2.30;;
60233;SDS011;49514;43.538;-5.708;2024-03-02T12:30:29;18.57;;;3.80;;
60233;SDS011;49514;43.538;-5.708;2024-03-02T12:32:58;16.20;;;2.47;;
60233;SDS011;49514;43.538;-5.708;2024-03-02T12:35:25;19.30;;;3.10;;
60233;SDS011;49514;43.538;-5.708;2024-03-02T12:37:52;19.20;;;2.45;;
60233;SDS011;49514;43.538;-5.708;2024-03-02T12:40:20;29.70;;;5.47;;
60233;SDS011;49514;43.538;-5.708;2024-03-02T12:42:48;14.98;;;3.58;;
60233;SDS011;49514;43.538;-5.708;2024-03-02T12:45:16;15.98;;;2.40;;
60233;SDS011;49514;43.538;-5.708;2024-03-02T12:47:49;8.03;;;1.27;;
60233;SDS011;49514;43.538;-5.708;2024-03-02T12:50:19;12.38;;;1.65;;
60233;SDS011;49514;43.538;-5.708;2024-03-02T12:52:53;13.10;;;3.60;;
60233;SDS011;49514;43.538;-5.708;2024-03-02T12:55:21;22.23;;;4.50;;
60233;SDS011;49514;43.538;-5.708;2024-03-02T12:57:52;25.95;;;7.85;;
60233;SDS011;49514;43.538;-5.708;2024-03-02T13:00:19;25.75;;;6.03;;
60233;SDS011;49514;43.538;-5.708;2024-03-02T13:02:47;19.88;;;4.32;;
60233;SDS011;49514;43.538;-5.708;2024-03-02T13:05:14;13.80;;;3.75;;
60233;SDS011;49514;43.538;-5.708;2024-03-02T13:07:41;11.18;;;3.47;;
60233;SDS011;49514;43.538;-5.708;2024-03-02T13:10:14;15.75;;;5.72;;
60233;SDS011;49514;43.538;-5.708;2024-03-02T13:12:41;22.52;;;6.80;;
60233;SDS011;49514;43.538;-5.708;2024-03-02T13:15:08;17.60;;;6.53;;
60233;SDS011;49514;43.538;-5.708;2024-03-02T13:17:35;17.65;;;3.78;;
60233;SDS011;49514;43.538;-5.708;2024-03-02T13:20:02;13.15;;;2.45;;
60233;SDS011;49514;43.538;-5.708;2024-03-02T13:22:30;7.10;;;1.98;;
60233;SDS011;49514;43.538;-5.708;2024-03-02T13:24:57;20.77;;;5.13;;
60233;SDS011;49514;43.538;-5.708;2024-03-02T13:27:25;21.20;;;4.57;;
60233;SDS011;49514;43.538;-5.708;2024-03-02T13:29:52;22.20;;;9.10;;
60233;SDS011;49514;43.538;-5.708;2024-03-02T13:32:20;25.50;;;6.70;;
60233;SDS011;49514;43.538;-5.708;2024-03-02T13:34:49;14.27;;;4.70;;
60233;SDS011;49514;43.538;-5.708;2024-03-02T13:37:16;12.43;;;3.70;;
60233;SDS011;49514;43.538;-5.708;2024-03-02T13:39:42;14.98;;;4.70;;
60233;SDS011;49514;43.538;-5.708;2024-03-02T13:42:10;27.10;;;8.00;;
60233;SDS011;49514;43.538;-5.708;2024-03-02T13:44:38;13.37;;;4.17;;
60233;SDS011;49514;43.538;-5.708;2024-03-02T13:47:05;8.40;;;2.17;;
60233;SDS011;49514;43.538;-5.708;2024-03-02T13:49:32;8.48;;;2.40;;
60233;SDS011;49514;43.538;-5.708;2024-03-02T13:52:03;9.13;;;2.90;;
60233;SDS011;49514;43.538;-5.708;2024-03-02T13:54:54;17.20;;;5.55;;
60233;SDS011;49514;43.538;-5.708;2024-03-02T13:57:20;26.02;;;6.65;;
60233;SDS011;49514;43.538;-5.708;2024-03-02T13:59:47;20.55;;;3.45;;
60233;SDS011;49514;43.538;-5.708;2024-03-02T17:16:23;5.78;;;1.30;;
60233;SDS011;49514;43.538;-5.708;2024-03-02T17:18:52;14.32;;;1.10;;
60233;SDS011;49514;43.538;-5.708;2024-03-02T17:21:19;2.33;;;0.40;;
60233;SDS011;49514;43.538;-5.708;2024-03-02T17:23:46;16.27;;;3.70;;
60233;SDS011;49514;43.538;-5.708;2024-03-02T17:26:13;4.15;;;0.80;;
60233;SDS011;49514;43.538;-5.708;2024-03-02T17:28:39;15.02;;;2.47;;
60233;SDS011;49514;43.538;-5.708;2024-03-02T17:31:07;6.13;;;2.60;;
60233;SDS011;49514;43.538;-5.708;2024-03-02T17:36:01;1.80;;;0.90;;
60233;SDS011;49514;43.538;-5.708;2024-03-02T17:38:29;1.73;;;0.73;;
60233;SDS011;49514;43.538;-5.708;2024-03-02T17:40:56;3.55;;;0.90;;
60233;SDS011;49514;43.538;-5.708;2024-03-02T17:43:23;5.80;;;2.00;;
60233;SDS011;49514;43.538;-5.708;2024-03-02T17:45:49;3.33;;;0.75;;
60233;SDS011;49514;43.538;-5.708;2024-03-02T17:48:16;2.15;;;0.75;;
60233;SDS011;49514;43.538;-5.708;2024-03-02T17:50:43;2.13;;;1.00;;
60233;SDS011;49514;43.538;-5.708;2024-03-02T17:53:10;3.42;;;1.70;;
60233;SDS011;49514;43.538;-5.708;2024-03-02T17:55:36;5.72;;;2.03;;
60233;SDS011;49514;43.538;-5.708;2024-03-02T17:58:03;2.55;;;1.50;;
60233;SDS011;49514;43.538;-5.708;2024-03-02T18:00:30;4.68;;;1.20;;
60233;SDS011;49514;43.538;-5.708;2024-03-02T18:02:57;2.30;;;0.90;;
60233;SDS011;49514;43.538;-5.708;2024-03-02T18:05:25;2.65;;;1.55;;
60233;SDS011;49514;43.538;-5.708;2024-03-02T18:07:51;2.25;;;1.20;;
60233;SDS011;49514;43.538;-5.708;2024-03-02T18:13:22;3.40;;;1.70;;
60233;SDS011;49514;43.538;-5.708;2024-03-02T18:15:49;2.38;;;1.52;;
60233;SDS011;49514;43.538;-5.708;2024-03-02T18:18:16;3.35;;;1.40;;
60233;SDS011;49514;43.538;-5.708;2024-03-02T18:20:42;3.78;;;1.15;;
